Alachua, FL

11:07 PM EST on December 21, 2014 (GMT -0500)
USGS | Change Station
CLOSE
Current Station
Personal Weather Station
Location: Gainesville, FL
Elevation: 157 ft
Nearby Weather Stations

Elev 157 ft 29.73 °N, 82.42 °W | Updated 11 minutes ago

Rain
Rain
60.8 °F
Feels Like 60.8 °F
N
0.0
Wind Variable Wind from North
Gusts 1.0 mph

Today
High -- | Low -- °F
--% Chance of Precip.
Yesterday
High -- | Low -- °F
Precip. -- in
7:21 AM 5:35 PM
New Moon, 0% visible
Pressure 30.06 in
Visibility 2.5 miles
Clouds Mostly Cloudy 200 ft
Mostly Cloudy 3200 ft
Overcast 10000 ft
Dew Point 61 °F
Humidity 100%
Rainfall 0.16 in
Snow Depth Not available.
UV 0 out of 12
Pollen .50 out of 12
Air Quality Not available.
Flu Activity Not available.
METAR KGNV 220353Z AUTO 00000KT 2 1/2SM -RA BR BKN002 BKN032 OVC100 16/16 A3006 RMK AO2 SLP179 P0004 T01560156

More Conditions Fewer Conditions

Pressure 30.06 in
Visibility 2.5 miles
Clouds Mostly Cloudy 200 ft
Mostly Cloudy 3200 ft
Overcast 10000 ft
Dew Point 61 °F
Humidity 100%
Rainfall 0.16 in
Snow Depth Not available.
UV 0 out of 12
Pollen .50 out of 12
Air Quality Not available.
Flu Activity Not available.
METAR KGNV 220353Z AUTO 00000KT 2 1/2SM -RA BR BKN002 BKN032 OVC100 16/16 A3006 RMK AO2 SLP179 P0004 T01560156

More Conditions Fewer Conditions

10-Day Weather Forecast

Almanac

Astronomy

Dec. 21, 2014 Rise Set
Actual Time
Civil Twilight
Nautical Twilight
Astronomical Twilight
Moon
Length of Visible Light
Length of Day
Tomorrow will be .
, % of the Moon is Illuminated

Today's Extremes

State Highs State Lows

Community

WunderPhotos

Upload Photos

1,779,534 photos uploaded!

WunderBlogs® & News

Nearby

Air Quality

  Air Quality AQ Index Pollutant
Not available.

Snow Depth

Station Depth Elevation

Earthquake Activity

City Distance Mag. Time & Date
Minimum magnitude displayed is 2.5.

Coastal Water Temperatures

Place Temperature

Nearby Weather Stations